Time;durP1;ratioP1;P1;durP2;ratioP2;P2;SDS_P1;SDS_P2;PMS_P1;PMS_P2;Temp;Humidity;BMP_temperature;BMP_pressure;BME280_temperature;BME280_humidity;BME280_pressure;Samples;Min_cycle;Max_cycle;Signal;HPM_P1;HPM_P2
2021/03/23 00:00:49;;;;;;;23.48;11.75;;;;;;;6.23;89.73;102078.75;4973668;28;20581;-77
2021/03/23 00:03:27;;;;;;;21.73;11.93;;;;;;;6.19;89.65;102075.28;4988321;28;20395;-77
2021/03/23 00:05:54;;;;;;;20.52;11.23;;;;;;;6.16;89.96;102080.69;4957766;28;20038;-78
2021/03/23 00:08:25;;;;;;;21.08;12.20;;;;;;;6.12;89.79;102079.00;4981263;28;20479;-76
2021/03/23 00:10:52;;;;;;;19.05;11.02;;;;;;;6.05;89.90;102074.72;4983383;28;20056;-77
2021/03/23 00:13:18;;;;;;;19.20;12.00;;;;;;;5.98;90.14;102078.47;4965780;28;20140;-76
2021/03/23 00:15:44;;;;;;;22.75;11.98;;;;;;;5.92;90.54;102086.63;4978691;28;20565;-77
2021/03/23 00:18:11;;;;;;;23.73;12.45;;;;;;;5.85;90.68;102082.28;4968673;28;20043;-78
2021/03/23 00:20:37;;;;;;;20.63;12.00;;;;;;;5.79;90.83;102083.31;4983434;28;20034;-77
2021/03/23 00:23:03;;;;;;;21.23;12.90;;;;;;;5.73;91.17;102077.25;4951117;28;20034;-76
2021/03/23 00:25:28;;;;;;;23.80;12.02;;;;;;;5.69;91.19;102081.75;4989595;28;20105;-77
2021/03/23 00:27:54;;;;;;;25.17;11.98;;;;;;;5.63;91.28;102079.22;4988623;28;20037;-76
2021/03/23 00:30:19;;;;;;;22.33;11.90;;;;;;;5.57;91.74;102074.91;4976279;28;20077;-77
2021/03/23 00:32:45;;;;;;;26.55;12.75;;;;;;;5.49;91.92;102076.84;4968273;28;20068;-77
2021/03/23 00:35:11;;;;;;;25.33;13.75;;;;;;;5.45;92.22;102072.53;4975657;28;20048;-76
2021/03/23 00:37:38;;;;;;;24.63;14.32;;;;;;;5.39;92.49;102077.97;4973636;28;20034;-76
2021/03/23 00:40:07;;;;;;;22.98;12.95;;;;;;;5.35;92.74;102076.31;4971376;28;20045;-77
2021/03/23 00:42:34;;;;;;;25.25;11.70;;;;;;;5.34;92.86;102074.53;4976853;28;20511;-76
2021/03/23 00:45:00;;;;;;;22.88;12.43;;;;;;;5.32;92.81;102083.47;4989912;28;20043;-77
2021/03/23 00:47:27;;;;;;;22.42;11.88;;;;;;;5.25;92.90;102070.28;4980810;28;20030;-76
2021/03/23 00:49:52;;;;;;;26.52;14.18;;;;;;;5.21;92.94;102073.03;4987409;28;20051;-77
2021/03/23 00:52:18;;;;;;;24.50;12.70;;;;;;;5.18;92.77;102073.13;4977021;28;20066;-77
2021/03/23 00:54:44;;;;;;;24.30;13.88;;;;;;;5.12;93.36;102074.09;4958017;28;20144;-76
2021/03/23 00:57:09;;;;;;;28.42;14.00;;;;;;;5.06;93.98;102078.69;4956293;28;20030;-77
2021/03/23 00:59:35;;;;;;;28.58;14.90;;;;;;;5.01;94.61;102080.53;4968575;28;20112;-78
2021/03/23 01:02:00;;;;;;;33.90;16.27;;;;;;;5.00;95.13;102079.66;4990692;28;20038;-76
2021/03/23 01:04:27;;;;;;;30.15;15.00;;;;;;;5.00;95.57;102073.50;4967079;28;20034;-77
2021/03/23 01:06:53;;;;;;;31.02;15.15;;;;;;;4.98;96.03;102072.63;4975815;28;20049;-77
2021/03/23 01:09:18;;;;;;;31.67;16.30;;;;;;;4.98;96.49;102070.84;4972400;28;20022;-76
2021/03/23 01:11:43;;;;;;;30.92;15.77;;;;;;;4.97;96.98;102071.75;4976007;28;20660;-77
2021/03/23 01:14:09;;;;;;;29.80;15.13;;;;;;;4.98;97.46;102069.97;4972959;28;20046;-76
2021/03/23 01:16:34;;;;;;;31.05;15.00;;;;;;;5.00;97.90;102074.34;4960632;28;20114;-77
2021/03/23 01:19:00;;;;;;;31.58;15.60;;;;;;;4.98;98.07;102075.28;4967836;28;20054;-76
2021/03/23 01:21:27;;;;;;;33.90;15.82;;;;;;;4.96;98.37;102074.44;4973933;28;20089;-77
2021/03/23 01:23:53;;;;;;;39.47;16.88;;;;;;;4.96;98.82;102075.31;4987724;28;20042;-77
2021/03/23 01:26:18;;;;;;;35.58;16.02;;;;;;;4.97;99.29;102070.88;4994846;28;20038;-77
2021/03/23 01:28:44;;;;;;;37.47;17.23;;;;;;;4.97;99.74;102068.22;4978400;28;20696;-77
2021/03/23 01:31:09;;;;;;;33.15;16.52;;;;;;;4.98;100.00;102069.97;4966215;28;20066;-75
2021/03/23 01:33:34;;;;;;;38.88;19.88;;;;;;;5.00;100.00;102070.81;4956418;28;20097;-76
2021/03/23 01:36:00;;;;;;;39.72;19.25;;;;;;;5.02;100.00;102074.31;4986837;28;20042;-76
2021/03/23 01:38:26;;;;;;;42.38;19.60;;;;;;;5.05;100.00;102068.94;4975615;28;20062;-76
2021/03/23 01:40:52;;;;;;;42.22;20.10;;;;;;;5.09;100.00;102073.28;4985458;28;20470;-76
2021/03/23 01:43:26;;;;;;;40.10;19.15;;;;;;;5.11;100.00;102071.47;4991574;28;20035;-76
2021/03/23 01:45:52;;;;;;;42.88;20.08;;;;;;;5.12;100.00;102067.91;4974457;28;20153;-76
2021/03/23 01:48:31;;;;;;;37.65;19.38;;;;;;;5.13;100.00;102072.31;4990823;28;20054;-76
2021/03/23 01:51:03;;;;;;;44.80;20.42;;;;;;;5.12;100.00;102060.78;4988691;28;20035;-77
2021/03/23 01:53:46;;;;;;;40.15;20.48;;;;;;;5.16;100.00;102067.81;4972544;28;20450;-76
2021/03/23 01:56:13;;;;;;;43.13;20.75;;;;;;;5.17;100.00;102072.25;4977980;28;20041;-76
2021/03/23 01:58:42;;;;;;;48.45;22.38;;;;;;;5.18;100.00;102070.47;4972584;28;20454;-76
2021/03/23 02:01:11;;;;;;;50.75;23.42;;;;;;;5.19;100.00;102074.84;4985211;28;20085;-77
2021/03/23 02:03:37;;;;;;;51.10;22.83;;;;;;;5.20;100.00;102060.63;4984896;28;20022;-77
2021/03/23 02:06:29;;;;;;;45.85;23.33;;;;;;;5.23;100.00;102065.91;4977412;28;20119;-76
2021/03/23 02:08:56;;;;;;;47.40;23.10;;;;;;;5.23;100.00;102068.56;4985491;28;20077;-76
2021/03/23 02:11:22;;;;;;;53.97;23.70;;;;;;;5.24;100.00;102062.34;4979503;28;20042;-77
2021/03/23 02:13:49;;;;;;;53.17;23.10;;;;;;;5.30;100.00;102072.88;4989485;28;22093;-77
2021/03/23 02:16:15;;;;;;;49.88;22.58;;;;;;;5.28;100.00;102069.34;4985589;28;20022;-76
2021/03/23 02:18:40;;;;;;;52.40;22.67;;;;;;;5.29;100.00;102065.78;4976640;28;20065;-76
2021/03/23 02:21:14;;;;;;;52.88;24.27;;;;;;;5.32;100.00;102071.03;4983192;28;20031;-77
2021/03/23 02:23:43;;;;;;;50.80;23.88;;;;;;;5.32;100.00;102064.81;4987146;28;20599;-77
2021/03/23 02:26:15;;;;;;;48.70;23.77;;;;;;;5.33;100.00;102066.56;4986289;28;20539;-76
2021/03/23 02:28:53;;;;;;;50.70;23.20;;;;;;;5.35;100.00;102060.31;4963921;28;20136;-76
2021/03/23 02:31:28;;;;;;;49.60;23.13;;;;;;;5.36;100.00;102056.75;4972776;28;20050;-77
2021/03/23 02:33:54;;;;;;;50.15;23.35;;;;;;;5.37;100.00;102063.81;4988722;28;20034;-75
2021/03/23 02:36:20;;;;;;;50.85;25.08;;;;;;;5.38;100.00;102065.56;4969990;28;20420;-76
2021/03/23 02:38:46;;;;;;;52.17;25.08;;;;;;;5.39;100.00;102053.13;4982132;28;20030;-77
2021/03/23 02:41:11;;;;;;;58.70;24.83;;;;;;;5.40;100.00;102049.56;4983790;28;20125;-76
2021/03/23 02:43:37;;;;;;;46.15;21.55;;;;;;;5.45;100.00;102051.22;4969275;28;20037;-76
2021/03/23 02:46:03;;;;;;;47.10;20.80;;;;;;;5.41;100.00;102046.88;4974684;28;20531;-76
2021/03/23 02:48:28;;;;;;;45.03;22.42;;;;;;;5.38;100.00;102043.38;4986615;28;20030;-75
2021/03/23 02:50:54;;;;;;;49.65;23.95;;;;;;;5.49;100.00;102038.72;4959144;28;20385;-77
2021/03/23 02:53:20;;;;;;;53.88;24.48;;;;;;;5.48;100.00;102029.84;4984217;28;20149;-77
2021/03/23 02:55:46;;;;;;;57.88;25.17;;;;;;;5.45;100.00;102034.34;4974550;28;20065;-76
2021/03/23 02:58:13;;;;;;;49.83;24.35;;;;;;;5.40;100.00;102037.13;4988590;28;20074;-76
2021/03/23 03:00:38;;;;;;;53.50;25.23;;;;;;;5.41;100.00;102032.69;4980644;28;20034;-76
2021/03/23 03:03:04;;;;;;;54.80;25.02;;;;;;;5.42;100.00;102040.66;4987734;28;20037;-76
2021/03/23 03:05:29;;;;;;;54.08;24.98;;;;;;;5.41;100.00;102038.00;4992235;28;20581;-77
2021/03/23 03:07:54;;;;;;;54.05;25.15;;;;;;;5.39;100.00;102045.16;4971100;28;20039;-76
2021/03/23 03:10:20;;;;;;;49.05;24.13;;;;;;;5.39;100.00;102035.38;4994160;28;20033;-76
2021/03/23 03:12:45;;;;;;;50.60;24.50;;;;;;;5.42;100.00;102040.66;4977510;28;20038;-75
2021/03/23 03:15:11;;;;;;;54.42;25.27;;;;;;;5.42;100.00;102035.31;4973575;28;20621;-77
2021/03/23 03:17:37;;;;;;;46.53;23.00;;;;;;;5.43;100.00;102041.53;4978618;28;20030;-76
2021/03/23 03:20:05;;;;;;;51.40;24.27;;;;;;;5.49;100.00;102046.72;4989480;28;20458;-77
2021/03/23 03:22:30;;;;;;;51.75;23.73;;;;;;;5.48;100.00;102052.94;4974444;28;20459;-77
2021/03/23 03:24:56;;;;;;;50.60;24.77;;;;;;;5.46;100.00;102044.09;4989858;28;20042;-76
2021/03/23 03:27:21;;;;;;;50.50;24.77;;;;;;;5.47;100.00;102048.53;4971664;28;20121;-75
2021/03/23 03:29:47;;;;;;;51.03;24.60;;;;;;;5.49;100.00;102041.38;4985227;28;20454;-77
2021/03/23 03:32:12;;;;;;;48.72;22.80;;;;;;;5.48;100.00;102040.50;4989040;28;20025;-77
2021/03/23 03:34:38;;;;;;;48.10;23.40;;;;;;;5.48;100.00;102039.63;4966413;28;20038;-75
2021/03/23 03:37:03;;;;;;;50.22;23.25;;;;;;;5.49;100.00;102047.56;4980805;28;20038;-76
2021/03/23 03:39:29;;;;;;;50.75;24.73;;;;;;;5.52;100.00;102044.84;4987611;28;20117;-76
2021/03/23 03:41:54;;;;;;;44.85;22.10;;;;;;;5.51;100.00;102048.41;4992474;28;20042;-76
2021/03/23 03:44:20;;;;;;;55.75;23.50;;;;;;;5.53;100.00;102041.28;4970478;28;20571;-76
2021/03/23 03:46:45;;;;;;;43.03;21.92;;;;;;;5.53;99.46;102048.38;4980935;28;20639;-77
2021/03/23 03:49:11;;;;;;;48.80;22.75;;;;;;;5.56;99.01;102043.84;4989590;28;20041;-77
2021/03/23 03:51:36;;;;;;;57.92;24.90;;;;;;;5.57;98.30;102050.94;4980115;28;20041;-76
2021/03/23 03:54:04;;;;;;;51.55;23.35;;;;;;;5.57;97.57;102045.63;4976184;28;20036;-75
2021/03/23 03:56:30;;;;;;;53.72;22.67;;;;;;;5.65;96.98;102049.00;4973344;28;20042;-76
2021/03/23 03:58:56;;;;;;;110.25;43.78;;;;;;;5.69;96.09;102037.34;4979840;28;20034;-76
2021/03/23 04:01:21;;;;;;;103.47;45.25;;;;;;;5.68;95.57;102042.69;4957910;28;20030;-76
2021/03/23 04:03:48;;;;;;;68.63;31.52;;;;;;;5.72;95.17;102043.53;4976758;28;20053;-76
2021/03/23 04:06:13;;;;;;;53.95;25.13;;;;;;;5.84;94.79;102040.56;4988229;28;20044;-76
2021/03/23 04:08:40;;;;;;;107.57;46.63;;;;;;;5.76;94.57;102034.53;4973345;28;20747;-76
2021/03/23 04:11:11;;;;;;;56.58;27.70;;;;;;;6.01;93.21;102039.28;4987417;28;20045;-76
2021/03/23 04:13:37;;;;;;;54.58;25.58;;;;;;;5.85;93.66;102037.88;4963687;28;20031;-76
2021/03/23 04:16:03;;;;;;;55.13;26.05;;;;;;;5.77;94.08;102036.28;4962112;28;20557;-75
2021/03/23 04:18:29;;;;;;;51.08;25.08;;;;;;;5.74;94.41;102041.72;4973399;28;20512;-76
2021/03/23 04:20:58;;;;;;;48.30;24.02;;;;;;;5.77;94.18;102036.28;4983407;28;20030;-76
2021/03/23 04:23:37;;;;;;;54.42;26.58;;;;;;;5.76;94.11;102035.41;4967868;28;20394;-76
2021/03/23 04:26:05;;;;;;;55.85;24.65;;;;;;;5.73;94.29;102031.97;4965757;28;20080;-76
2021/03/23 04:28:30;;;;;;;48.95;23.73;;;;;;;5.73;94.40;102034.63;4990808;28;20034;-75
2021/03/23 04:30:56;;;;;;;53.80;24.27;;;;;;;5.76;94.06;102031.88;4985919;28;20077;-76
2021/03/23 04:33:24;;;;;;;47.55;24.83;;;;;;;5.77;93.96;102030.97;4955644;28;20411;-77
2021/03/23 04:35:55;;;;;;;68.80;33.65;;;;;;;5.77;93.56;102026.50;4976624;28;20046;-77
2021/03/23 04:38:24;;;;;;;81.97;38.40;;;;;;;5.77;93.71;102030.97;4980103;28;20121;-77
2021/03/23 04:40:51;;;;;;;67.57;34.25;;;;;;;5.77;93.67;102030.97;4976660;28;20034;-76
2021/03/23 04:43:23;;;;;;;62.55;30.52;;;;;;;5.78;93.25;102030.94;4964491;28;20038;-76
2021/03/23 04:45:49;;;;;;;62.85;28.63;;;;;;;5.79;92.90;102034.47;4973056;28;20403;-75
2021/03/23 04:48:15;;;;;;;63.55;28.17;;;;;;;5.79;92.73;102026.47;4991689;28;20039;-77
2021/03/23 04:50:40;;;;;;;48.05;24.65;;;;;;;5.79;92.28;102037.16;4979268;28;20058;-77
2021/03/23 04:53:06;;;;;;;46.92;24.02;;;;;;;5.86;91.97;102031.63;4993431;28;20027;-75
2021/03/23 04:55:31;;;;;;;46.83;22.98;;;;;;;5.89;91.64;102036.03;4966809;28;20069;-74
2021/03/23 04:57:57;;;;;;;51.47;24.75;;;;;;;6.00;90.92;102029.53;4955562;28;20076;-76
2021/03/23 05:00:22;;;;;;;81.53;37.10;;;;;;;5.96;90.86;102035.84;4977524;28;20738;-77
2021/03/23 05:02:48;;;;;;;58.33;27.15;;;;;;;6.04;90.39;102035.69;4969200;28;20176;-77
2021/03/23 05:05:14;;;;;;;60.65;27.88;;;;;;;5.97;90.93;102037.63;4983299;28;20030;-75
2021/03/23 05:07:39;;;;;;;76.80;35.20;;;;;;;6.01;90.75;102041.06;4973415;28;20038;-76
2021/03/23 05:10:07;;;;;;;64.80;29.98;;;;;;;6.05;90.62;102027.63;4964406;28;20019;-75
2021/03/23 05:12:33;;;;;;;66.47;32.30;;;;;;;5.96;91.17;102022.53;4978062;28;20027;-76
2021/03/23 05:14:58;;;;;;;75.22;33.00;;;;;;;6.01;91.32;102025.94;4997351;28;20037;-75
2021/03/23 05:17:23;;;;;;;61.67;30.65;;;;;;;6.06;91.70;102028.50;4990174;28;20096;-76
2021/03/23 05:19:49;;;;;;;64.22;30.98;;;;;;;6.10;91.29;102022.19;4977771;28;20045;-76
2021/03/23 05:22:14;;;;;;;66.15;30.90;;;;;;;5.99;91.59;102027.78;4989817;28;20034;-75
2021/03/23 05:24:39;;;;;;;62.30;28.08;;;;;;;5.94;91.83;102018.13;4988272;28;20065;-76
2021/03/23 05:27:06;;;;;;;54.88;27.45;;;;;;;6.00;91.68;102031.31;4988906;28;20038;-76
2021/03/23 05:29:31;;;;;;;57.35;28.27;;;;;;;5.93;92.02;102030.59;4959734;28;20107;-77
2021/03/23 05:31:56;;;;;;;55.85;28.10;;;;;;;5.91;92.62;102023.56;4978026;28;20503;-76
2021/03/23 05:34:22;;;;;;;63.90;30.98;;;;;;;5.91;92.54;102029.78;4981723;28;20534;-76
2021/03/23 05:36:47;;;;;;;61.00;29.58;;;;;;;5.91;92.64;102036.88;4976741;28;20081;-76
2021/03/23 05:39:13;;;;;;;61.13;27.85;;;;;;;5.94;92.51;102029.69;4992837;28;20093;-75
2021/03/23 05:41:55;;;;;;;55.63;26.63;;;;;;;6.06;91.96;102028.50;4983595;28;20033;-76
2021/03/23 05:44:45;;;;;;;61.00;27.63;;;;;;;6.06;91.68;102028.50;4974138;28;20595;-77
2021/03/23 05:47:14;;;;;;;55.85;26.40;;;;;;;6.09;91.61;102039.09;4961747;28;20030;-77
2021/03/23 05:49:45;;;;;;;62.50;27.48;;;;;;;6.03;91.65;102039.25;4989207;28;20030;-76
2021/03/23 05:52:20;;;;;;;52.17;26.60;;;;;;;6.00;91.49;102041.97;4988138;28;20030;-76
2021/03/23 05:55:14;;;;;;;53.53;27.15;;;;;;;6.04;91.71;102035.69;4979636;28;20038;-76
2021/03/23 05:57:44;;;;;;;59.55;26.75;;;;;;;6.03;91.48;102039.25;4974908;28;20121;-76
2021/03/23 06:00:19;;;;;;;57.42;26.58;;;;;;;6.25;90.36;102040.44;4961409;28;20388;-76
2021/03/23 06:02:53;;;;;;;57.13;28.35;;;;;;;6.12;91.07;102044.34;4989561;28;20065;-75
2021/03/23 06:05:41;;;;;;;60.17;27.00;;;;;;;6.16;91.00;102040.69;4990545;28;20495;-76
2021/03/23 06:08:18;;;;;;;62.38;25.63;;;;;;;6.18;91.10;102048.63;4956858;28;20034;-76
2021/03/23 06:10:45;;;;;;;57.58;24.70;;;;;;;6.10;91.55;102046.19;4986641;28;20218;-76
2021/03/23 06:13:23;;;;;;;66.43;29.77;;;;;;;6.27;91.12;102051.97;4990380;28;20742;-76
2021/03/23 06:16:13;;;;;;;51.90;24.23;;;;;;;6.30;91.19;102049.22;4972078;28;20041;-77
2021/03/23 06:18:45;;;;;;;52.55;24.15;;;;;;;6.18;91.58;102044.19;4982874;28;20124;-75
2021/03/23 06:21:19;;;;;;;54.67;25.42;;;;;;;6.25;91.41;102044.91;4970478;28;20074;-76
2021/03/23 06:24:06;;;;;;;58.80;26.25;;;;;;;6.48;90.73;102045.22;4991794;28;20060;-76
2021/03/23 06:26:55;;;;;;;85.65;33.28;;;;;;;6.53;90.43;102034.41;4986847;28;20759;-76
2021/03/23 06:29:33;;;;;;;89.50;36.75;;;;;;;6.46;90.53;102042.59;4964646;28;20034;-77
2021/03/23 06:31:58;;;;;;;101.00;38.88;;;;;;;6.52;90.23;102030.88;4990647;28;20525;-76
2021/03/23 06:34:30;;;;;;;76.88;31.80;;;;;;;6.60;89.81;102039.56;4971138;28;20034;-77
2021/03/23 06:36:56;;;;;;;83.97;33.67;;;;;;;6.56;89.90;102045.00;4995023;28;20502;-77
2021/03/23 06:39:22;;;;;;;112.78;42.25;;;;;;;6.49;90.54;102045.16;4967930;28;20030;-76
2021/03/23 06:41:52;;;;;;;84.85;33.55;;;;;;;6.65;89.17;102052.75;4974772;28;20169;-75
2021/03/23 06:44:30;;;;;;;75.30;30.88;;;;;;;6.64;89.80;102048.34;4978347;28;20041;-77
2021/03/23 06:46:57;;;;;;;101.47;36.83;;;;;;;6.71;89.74;102055.25;4953003;28;20522;-76
2021/03/23 06:49:33;;;;;;;188.82;59.20;;;;;;;6.66;89.85;102059.84;4974961;28;20476;-77
2021/03/23 06:52:11;;;;;;;82.15;32.15;;;;;;;6.82;89.17;102059.38;4975374;28;20046;-75
2021/03/23 06:54:39;;;;;;;79.25;32.47;;;;;;;6.86;89.25;102049.50;4978257;28;20398;-77
2021/03/23 06:57:06;;;;;;;85.10;36.72;;;;;;;6.86;89.11;102054.81;4991111;28;20030;-75
2021/03/23 06:59:44;;;;;;;62.88;27.67;;;;;;;6.83;88.94;102062.94;4977267;28;20037;-75
2021/03/23 07:02:29;;;;;;;61.80;27.15;;;;;;;6.91;88.67;102066.28;4985291;28;20121;-77
2021/03/23 07:04:55;;;;;;;61.50;25.70;;;;;;;6.88;89.47;102069.03;4980807;28;20065;-76
2021/03/23 07:07:22;;;;;;;56.30;24.10;;;;;;;7.03;89.01;102078.41;4988490;28;20061;-77
2021/03/23 07:09:56;;;;;;;57.67;26.58;;;;;;;6.91;88.97;102076.97;4962697;28;20125;-77
2021/03/23 07:12:44;;;;;;;61.00;24.17;;;;;;;7.01;88.22;102077.56;4971732;28;20030;-76
2021/03/23 07:15:17;;;;;;;54.10;24.15;;;;;;;6.99;88.71;102076.72;4975101;28;20446;-77
2021/03/23 07:17:44;;;;;;;51.78;24.75;;;;;;;7.08;87.73;102082.69;4980393;28;20038;-77
2021/03/23 07:20:23;;;;;;;55.33;23.55;;;;;;;7.00;87.82;102090.03;4975182;28;20125;-77
2021/03/23 07:22:51;;;;;;;52.95;23.67;;;;;;;7.12;87.25;102094.16;4987436;28;20045;-77
2021/03/23 07:25:43;;;;;;;55.58;23.95;;;;;;;7.10;87.86;102095.97;4978469;28;20038;-77
2021/03/23 07:28:37;;;;;;;59.78;23.65;;;;;;;7.15;88.19;102089.63;4992526;28;20030;-76
2021/03/23 07:31:15;;;;;;;60.90;24.90;;;;;;;7.23;87.45;102087.59;4978216;28;20049;-75
2021/03/23 07:34:01;;;;;;;47.20;21.50;;;;;;;7.33;87.34;102088.22;4977513;28;20034;-76
2021/03/23 07:36:33;;;;;;;50.78;21.42;;;;;;;7.43;86.67;102088.81;4976262;28;20497;-77
2021/03/23 07:39:09;;;;;;;50.42;21.90;;;;;;;7.44;86.88;102087.88;4988504;28;20038;-75
2021/03/23 07:41:45;;;;;;;50.97;21.00;;;;;;;7.48;86.54;102094.88;4975426;28;20085;-76
2021/03/23 07:44:31;;;;;;;51.13;24.00;;;;;;;7.48;86.04;102087.75;4976748;28;20454;-76
2021/03/23 07:47:00;;;;;;;53.28;21.40;;;;;;;7.52;86.17;102083.22;4970803;28;20035;-77
2021/03/23 07:49:46;;;;;;;54.03;21.92;;;;;;;7.65;85.68;102085.44;4973537;28;20049;-77
2021/03/23 07:52:30;;;;;;;50.55;21.95;;;;;;;7.88;85.00;102084.75;4988949;28;20053;-76
2021/03/23 07:54:59;;;;;;;46.95;20.55;;;;;;;8.01;84.01;102087.91;4987788;28;20030;-75
2021/03/23 07:57:33;;;;;;;49.13;21.33;;;;;;;7.87;84.92;102083.00;4995402;28;20495;-77
2021/03/23 08:00:14;;;;;;;46.42;21.65;;;;;;;8.01;84.67;102091.47;4972108;28;20030;-76
2021/03/23 08:03:11;;;;;;;46.58;21.70;;;;;;;8.05;84.48;102095.78;4982199;28;20054;-77
2021/03/23 08:05:45;;;;;;;52.95;22.13;;;;;;;8.26;83.08;102088.00;4970745;28;20058;-75
2021/03/23 08:08:14;;;;;;;48.65;21.40;;;;;;;8.34;83.55;102083.28;4960302;28;20030;-75
2021/03/23 08:10:58;;;;;;;47.05;19.75;;;;;;;8.45;81.92;102083.81;4970001;28;20185;-75
2021/03/23 08:13:41;;;;;;;52.22;20.85;;;;;;;8.80;80.73;102078.09;4974320;28;20061;-76
2021/03/23 08:16:09;;;;;;;47.20;20.08;;;;;;;8.86;80.64;102069.84;4987871;28;20061;-76
2021/03/23 08:18:50;;;;;;;51.40;20.25;;;;;;;9.00;79.97;102080.09;4951078;28;20492;-76
2021/03/23 08:21:44;;;;;;;50.90;20.10;;;;;;;9.34;79.07;102093.97;4972929;28;20430;-77
2021/03/23 08:24:32;;;;;;;46.97;19.67;;;;;;;9.49;77.01;102092.53;4973335;28;20058;-76
2021/03/23 08:27:14;;;;;;;43.80;19.13;;;;;;;9.41;76.99;102099.97;4977871;28;20034;-76
2021/03/23 08:29:55;;;;;;;41.35;18.88;;;;;;;9.34;76.72;102098.47;4987087;28;20078;-76
2021/03/23 08:32:35;;;;;;;44.90;19.92;;;;;;;9.31;77.47;102107.50;4972750;28;20092;-76
2021/03/23 08:35:19;;;;;;;45.58;18.73;;;;;;;9.38;76.79;102104.59;4972603;28;20073;-75
2021/03/23 08:38:09;;;;;;;42.35;19.38;;;;;;;9.42;76.19;102107.09;4988531;28;20042;-75
2021/03/23 08:40:45;;;;;;;44.53;17.92;;;;;;;9.45;76.82;102101.59;4999889;28;20080;-76
2021/03/23 08:43:16;;;;;;;43.53;19.08;;;;;;;9.46;77.86;102108.72;4997290;28;20116;-77
2021/03/23 08:45:47;;;;;;;44.53;20.17;;;;;;;9.53;77.52;102115.59;4988449;28;20132;-76
2021/03/23 08:48:59;;;;;;;45.90;18.35;;;;;;;9.69;77.89;102110.50;4973496;28;20092;-76
2021/03/23 08:51:27;;;;;;;37.78;17.73;;;;;;;9.65;76.86;102108.91;4963873;28;20046;-75
2021/03/23 08:53:55;;;;;;;42.90;17.27;;;;;;;9.86;75.88;102112.56;4972416;28;20058;-76
2021/03/23 08:56:44;;;;;;;40.42;18.17;;;;;;;9.92;75.72;102107.84;4979662;28;20534;-76
2021/03/23 08:59:35;;;;;;;40.97;17.20;;;;;;;10.01;75.60;102122.66;4971257;28;20108;-76
2021/03/23 09:02:21;;;;;;;36.25;16.63;;;;;;;10.08;75.31;102119.69;4974886;28;20572;-76
2021/03/23 09:04:59;;;;;;;35.85;15.27;;;;;;;10.29;73.85;102122.50;4976959;28;20125;-75
2021/03/23 09:07:34;;;;;;;39.03;16.38;;;;;;;10.44;73.68;102117.34;4978680;28;20113;-77
2021/03/23 09:10:00;;;;;;;34.63;15.75;;;;;;;10.66;72.50;102114.66;4979296;28;20048;-76
2021/03/23 09:12:41;;;;;;;40.80;18.08;;;;;;;11.12;70.50;102110.81;4988488;28;20022;-76
2021/03/23 09:15:16;;;;;;;37.88;16.83;;;;;;;11.14;70.75;102110.75;4976425;28;20042;-76
2021/03/23 09:18:01;;;;;;;33.83;17.67;;;;;;;11.20;68.21;102119.44;4974872;28;20042;-75
2021/03/23 09:20:30;;;;;;;39.08;17.52;;;;;;;11.10;69.84;102117.22;4976646;28;20035;-76
2021/03/23 09:22:56;;;;;;;34.05;15.50;;;;;;;11.11;70.35;102109.06;4976465;28;20037;-76
2021/03/23 09:25:24;;;;;;;39.25;17.33;;;;;;;11.40;69.59;102114.97;4981057;28;20066;-76
2021/03/23 09:27:50;;;;;;;32.60;15.35;;;;;;;11.60;68.73;102109.56;4980073;28;20065;-75
2021/03/23 09:30:34;;;;;;;36.83;16.35;;;;;;;11.61;68.36;102116.66;4970636;28;20081;-76
2021/03/23 09:33:21;;;;;;;35.60;15.75;;;;;;;11.81;66.97;102111.25;4976776;28;20534;-76
2021/03/23 09:36:15;;;;;;;28.77;14.95;;;;;;;11.84;66.68;102113.81;4987285;28;20034;-76
2021/03/23 09:38:43;;;;;;;31.75;14.40;;;;;;;11.86;65.62;102119.97;4989400;28;20592;-76
2021/03/23 09:41:20;;;;;;;41.65;14.98;;;;;;;12.03;65.86;102128.16;4988713;28;20038;-74
2021/03/23 09:44:14;;;;;;;35.25;14.30;;;;;;;12.12;66.74;102133.06;4972676;28;20052;-77
2021/03/23 09:46:43;;;;;;;35.85;15.20;;;;;;;11.99;66.35;102126.53;4980966;28;20489;-75
2021/03/23 09:49:21;;;;;;;33.67;14.38;;;;;;;12.11;66.17;102136.69;4961624;28;20034;-77
2021/03/23 09:52:02;;;;;;;32.50;13.65;;;;;;;12.24;66.33;102130.72;4982043;28;20038;-75
2021/03/23 09:54:50;;;;;;;35.88;15.15;;;;;;;12.29;64.87;102121.47;4965127;28;20173;-76
2021/03/23 09:57:19;;;;;;;40.15;15.50;;;;;;;12.50;64.49;102111.47;4971864;28;20113;-76
2021/03/23 09:59:48;;;;;;;36.33;14.98;;;;;;;12.48;65.14;102113.34;4983385;28;20149;-76
2021/03/23 10:02:31;;;;;;;37.85;15.98;;;;;;;12.69;66.63;102106.03;4991296;28;20034;-76
2021/03/23 10:05:28;;;;;;;35.42;15.02;;;;;;;12.97;64.98;102095.53;4991651;28;20074;-75
2021/03/23 10:08:10;;;;;;;32.20;14.15;;;;;;;13.13;64.49;102099.22;4955379;28;20042;-76
2021/03/23 10:10:37;;;;;;;31.38;13.93;;;;;;;13.15;60.65;102093.72;4977367;28;20084;-76
2021/03/23 10:13:26;;;;;;;31.02;14.23;;;;;;;13.17;61.08;102097.22;4955806;28;20108;-76
2021/03/23 10:15:53;;;;;;;31.98;14.52;;;;;;;13.11;61.12;102092.13;4988140;28;20042;-76
2021/03/23 10:18:25;;;;;;;33.22;14.70;;;;;;;13.25;62.73;102084.22;4994609;28;20034;-77
2021/03/23 10:21:00;;;;;;;30.58;14.25;;;;;;;13.46;63.38;102093.81;4975465;28;20038;-76
2021/03/23 10:23:30;;;;;;;32.63;15.10;;;;;;;13.51;59.46;102094.47;4993695;28;20115;-76
2021/03/23 10:25:57;;;;;;;30.10;13.82;;;;;;;13.54;60.89;102091.59;4969379;28;20668;-76
2021/03/23 10:28:25;;;;;;;33.72;13.75;;;;;;;13.36;62.23;102081.81;4976442;28;20046;-76
2021/03/23 10:30:59;;;;;;;36.15;14.18;;;;;;;13.57;61.31;102079.78;4988995;28;20042;-76
2021/03/23 10:33:29;;;;;;;26.15;13.32;;;;;;;13.57;60.05;102088.75;4978005;28;20034;-76
2021/03/23 10:35:58;;;;;;;32.35;14.50;;;;;;;13.50;60.75;102083.75;4964281;28;20030;-76
2021/03/23 10:38:30;;;;;;;27.38;12.95;;;;;;;13.54;60.75;102085.31;4965453;28;20062;-75
2021/03/23 10:40:58;;;;;;;33.08;14.20;;;;;;;13.67;59.97;102091.78;4975335;28;20046;-76
2021/03/23 10:43:39;;;;;;;30.90;13.35;;;;;;;13.68;59.01;102083.63;4996964;28;20092;-76
2021/03/23 10:46:25;;;;;;;29.67;14.00;;;;;;;13.45;61.00;102085.84;4992647;28;20041;-76
2021/03/23 10:48:50;;;;;;;31.35;14.27;;;;;;;13.41;61.53;102068.06;4973192;28;20494;-76
2021/03/23 10:51:40;;;;;;;28.08;12.50;;;;;;;13.64;62.67;102065.00;4977923;28;20044;-76
2021/03/23 10:54:12;;;;;;;29.23;12.68;;;;;;;13.84;59.06;102066.53;4985618;28;20826;-76
2021/03/23 10:56:43;;;;;;;36.22;14.02;;;;;;;13.80;60.33;102059.59;4989106;28;20031;-76
2021/03/23 10:59:29;;;;;;;29.02;13.10;;;;;;;13.96;59.98;102055.06;4987324;28;20043;-76
2021/03/23 11:02:05;;;;;;;27.65;14.00;;;;;;;13.99;59.98;102058.47;4987492;28;20038;-76
2021/03/23 11:04:36;;;;;;;32.67;14.45;;;;;;;13.93;59.58;102045.31;4990438;28;20503;-75
2021/03/23 11:07:23;;;;;;;27.35;14.52;;;;;;;13.82;58.97;102052.28;4992710;28;20093;-76
2021/03/23 11:09:50;;;;;;;27.70;13.85;;;;;;;13.59;60.58;102046.34;4970572;28;20026;-75
2021/03/23 11:12:16;;;;;;;30.58;14.32;;;;;;;13.78;61.21;102044.34;4997666;28;20095;-76
2021/03/23 11:14:41;;;;;;;31.85;14.70;;;;;;;13.65;60.43;102039.72;4972603;28;20051;-76
2021/03/23 11:17:11;;;;;;;36.45;15.48;;;;;;;13.83;59.82;102040.50;4968755;28;20034;-76
2021/03/23 11:19:38;;;;;;;32.35;14.23;;;;;;;14.11;62.24;102044.25;4993117;28;20077;-76
2021/03/23 11:22:05;;;;;;;29.30;14.65;;;;;;;14.28;60.26;102034.28;4957832;28;20041;-75
2021/03/23 11:24:32;;;;;;;32.03;14.73;;;;;;;14.30;62.03;102032.38;4990037;28;20058;-76
2021/03/23 11:26:59;;;;;;;32.75;14.55;;;;;;;13.95;59.25;102047.94;4949411;28;20073;-76
2021/03/23 11:29:26;;;;;;;27.08;14.10;;;;;;;13.88;58.40;102036.63;4972451;28;20500;-76
2021/03/23 11:31:52;;;;;;;25.75;13.45;;;;;;;13.85;59.36;102025.09;4971366;28;20037;-76
2021/03/23 11:34:17;;;;;;;28.02;14.15;;;;;;;14.04;61.48;102032.06;4972373;28;20085;-76